weather.gov     
National Weather Service

Terminal Aerodrome Forecast
NWS Homepage
This page is being discontinued on March 12, 2014.
The same data is available at this site. Please update your bookmarks.
Thank you, and we apologize for the inconvenience.
Please send an email to SR-SRH.Webmaster@noaa.gov with any concerns.


Current Version
Previous Version:    01  02  03  04  05  06  07  08  09  10  11  12  13  14  15  16  17  18  19  20  21  22  23  24  25  26  27  28  29  
[Printable]
846
FTUS44 KHUN 201720
TAFMSL
TAF
KMSL 201720Z 2018/2118 VRB04KT P6SM FEW040 SCT120 SCT250
     FM210000 VRB02KT P6SM SCT250
     FM210600 00000KT 5SM BR SKC
     FM210800 00000KT 2SM BR SKC
      TEMPO 2109/2113 1/2SM FG
     FM211400 VRB05KT P6SM SKC=


846
FTUS44 KHUN 201720
TAFMSL
TAF
KMSL 201720Z 2018/2118 VRB04KT P6SM FEW040 SCT120 SCT250
     FM210000 VRB02KT P6SM SCT250
     FM210600 00000KT 5SM BR SKC
     FM210800 00000KT 2SM BR SKC
      TEMPO 2109/2113 1/2SM FG
     FM211400 VRB05KT P6SM SKC=




U.S. Dept. of Commerce
NOAA National Weather Service
1325 East West Highway
Silver Spring, MD 20910
E-mail: w-nws.webmaster@noaa.gov
Page last modified: May 16, 2007
NATIONAL WEATHER SERVICE: for Safety, for Work, for Fun - FOR LIFE